Time,TemperatureF,DewpointF,PressureIn,WindDirection,WindDirectionDegrees,WindSpeedMPH,WindSpeedGustMPH,Humidity,HourlyPrecipIn,Conditions,Clouds,dailyrainin,SolarRadiationWatts/m^2,SoftwareType,DateUTC
2013-01-07 00:02:00,20.0,4.0,-100.00,ENE,64,6.0,7.0,48,-99.99,,,0.00,0.000000,,2013-01-07 07:02:00,
2013-01-07 00:12:00,20.0,4.0,-100.00,ENE,64,6.0,7.0,48,-99.99,,,0.00,0.000000,,2013-01-07 07:12:00,
2013-01-07 00:22:00,20.0,4.0,-100.00,ENE,64,6.0,7.0,48,-99.99,,,0.00,0.000000,,2013-01-07 07:22:00,
2013-01-07 00:32:00,20.0,4.0,-100.00,ENE,64,6.0,7.0,48,-99.99,,,0.00,0.000000,,2013-01-07 07:32:00,
2013-01-07 00:52:00,18.0,4.0,-100.00,SE,129,1.0,5.0,53,-99.99,,,0.00,0.000000,,2013-01-07 07:52:00,
2013-01-07 01:02:00,18.0,4.0,-100.00,SE,129,1.0,5.0,53,-99.99,,,0.00,0.000000,,2013-01-07 08:02:00,
2013-01-07 01:12:00,18.0,4.0,-100.00,SE,129,1.0,5.0,53,-99.99,,,0.00,0.000000,,2013-01-07 08:12:00,
2013-01-07 01:22:00,18.0,4.0,-100.00,SE,129,1.0,5.0,53,-99.99,,,0.00,0.000000,,2013-01-07 08:22:00,
2013-01-07 01:32:00,18.0,4.0,-100.00,SE,129,1.0,5.0,53,-99.99,,,0.00,0.000000,,2013-01-07 08:32:00,
2013-01-07 01:53:00,18.0,5.0,-100.00,NE,34,2.0,5.0,55,0.00,,,0.00,0.000000,,2013-01-07 08:53:00,
2013-01-07 02:12:00,18.0,5.0,-100.00,NE,34,2.0,5.0,55,0.00,,,0.00,0.000000,,2013-01-07 09:12:00,
2013-01-07 02:22:00,18.0,5.0,-100.00,NE,34,2.0,5.0,55,0.00,,,0.00,0.000000,,2013-01-07 09:22:00,
2013-01-07 02:32:00,18.0,5.0,-100.00,NE,34,2.0,5.0,55,0.00,,,0.00,0.000000,,2013-01-07 09:32:00,
2013-01-07 02:52:00,18.0,5.0,-100.00,NE,42,6.0,7.0,56,0.00,,,0.00,0.000000,,2013-01-07 09:52:00,
2013-01-07 03:02:00,18.0,5.0,-100.00,NE,42,6.0,7.0,56,0.00,,,0.00,0.000000,,2013-01-07 10:02:00,
2013-01-07 03:12:00,18.0,5.0,-100.00,NE,42,6.0,7.0,56,0.00,,,0.00,0.000000,,2013-01-07 10:12:00,
2013-01-07 03:22:00,18.0,5.0,-100.00,NE,42,6.0,7.0,56,0.00,,,0.00,0.000000,,2013-01-07 10:22:00,
2013-01-07 03:32:00,18.0,5.0,-100.00,NE,42,6.0,7.0,56,0.00,,,0.00,0.000000,,2013-01-07 10:32:00,
2013-01-07 03:52:00,16.0,4.0,-100.00,ENE,58,8.0,10.0,59,-99.99,,,0.00,0.000000,,2013-01-07 10:52:00,
2013-01-07 04:12:00,16.0,4.0,-100.00,ENE,58,8.0,10.0,59,-99.99,,,0.00,0.000000,,2013-01-07 11:12:00,
2013-01-07 04:22:00,16.0,4.0,-100.00,ENE,58,8.0,10.0,59,-99.99,,,0.00,0.000000,,2013-01-07 11:22:00,
2013-01-07 04:32:00,16.0,4.0,-100.00,ENE,58,8.0,10.0,59,-99.99,,,0.00,0.000000,,2013-01-07 11:32:00,
2013-01-07 04:53:00,16.0,5.0,-100.00,ENE,63,7.0,12.0,62,-99.99,,,0.00,0.000000,,2013-01-07 11:53:00,
2013-01-07 05:02:00,16.0,5.0,-100.00,ENE,63,7.0,12.0,62,-99.99,,,0.00,0.000000,,2013-01-07 12:02:00,
2013-01-07 05:12:00,16.0,5.0,-100.00,ENE,63,7.0,12.0,62,-99.99,,,0.00,0.000000,,2013-01-07 12:12:00,
2013-01-07 05:22:00,16.0,5.0,-100.00,ENE,63,7.0,12.0,62,-99.99,,,0.00,0.000000,,2013-01-07 12:22:00,
2013-01-07 05:32:00,16.0,5.0,-100.00,ENE,63,7.0,12.0,62,-99.99,,,0.00,0.000000,,2013-01-07 12:32:00,
2013-01-07 05:53:00,13.0,5.0,-100.00,NE,53,8.0,9.0,71,0.00,,,0.00,0.000000,,2013-01-07 12:53:00,
2013-01-07 06:02:00,13.0,5.0,-100.00,NE,53,8.0,9.0,71,0.00,,,0.00,0.000000,,2013-01-07 13:02:00,
2013-01-07 06:12:00,13.0,5.0,-100.00,NE,53,8.0,9.0,71,0.00,,,0.00,0.000000,,2013-01-07 13:12:00,
2013-01-07 06:22:00,13.0,5.0,-100.00,NE,53,8.0,9.0,71,0.00,,,0.00,0.000000,,2013-01-07 13:22:00,
2013-01-07 06:32:00,13.0,5.0,-100.00,NE,53,8.0,9.0,71,0.00,,,0.00,0.000000,,2013-01-07 13:32:00,
2013-01-07 06:53:00,14.0,5.0,-100.00,NE,48,10.0,11.0,67,-99.99,,,0.00,0.000000,,2013-01-07 13:53:00,
2013-01-07 07:03:00,14.0,5.0,-100.00,NE,48,10.0,11.0,67,-99.99,,,0.00,0.000000,,2013-01-07 14:03:00,
2013-01-07 07:12:00,14.0,5.0,-100.00,NE,48,10.0,11.0,67,-99.99,,,0.00,0.000000,,2013-01-07 14:12:00,
2013-01-07 07:22:00,14.0,5.0,-100.00,NE,48,10.0,11.0,67,-99.99,,,0.00,0.000000,,2013-01-07 14:22:00,
2013-01-07 07:32:00,14.0,5.0,-100.00,NE,48,10.0,11.0,67,-99.99,,,0.00,0.000000,,2013-01-07 14:32:00,
2013-01-07 07:53:00,12.0,4.0,-100.00,ENE,57,12.0,15.0,70,0.00,,,0.00,0.000000,,2013-01-07 14:53:00,
2013-01-07 08:03:00,12.0,4.0,-100.00,ENE,57,12.0,15.0,70,0.00,,,0.00,0.000000,,2013-01-07 15:03:00,
2013-01-07 08:12:00,12.0,4.0,-100.00,ENE,57,12.0,15.0,70,0.00,,,0.00,0.000000,,2013-01-07 15:12:00,
2013-01-07 08:22:00,12.0,4.0,-100.00,ENE,57,12.0,15.0,70,0.00,,,0.00,0.000000,,2013-01-07 15:22:00,
2013-01-07 08:33:00,12.0,4.0,-100.00,ENE,57,12.0,15.0,70,0.00,,,0.00,0.000000,,2013-01-07 15:33:00,
2013-01-07 08:53:00,16.0,5.0,-100.00,East,90,11.0,16.0,60,0.00,,,0.00,19.000000,,2013-01-07 15:53:00,
2013-01-07 09:02:00,16.0,5.0,-100.00,East,90,11.0,16.0,60,0.00,,,0.00,19.000000,,2013-01-07 16:02:00,
2013-01-07 09:12:00,16.0,5.0,-100.00,East,90,11.0,16.0,60,0.00,,,0.00,19.000000,,2013-01-07 16:12:00,
2013-01-07 09:22:00,16.0,5.0,-100.00,East,90,11.0,16.0,60,0.00,,,0.00,19.000000,,2013-01-07 16:22:00,
2013-01-07 09:32:00,16.0,5.0,-100.00,East,90,11.0,16.0,60,0.00,,,0.00,19.000000,,2013-01-07 16:32:00,
2013-01-07 09:53:00,17.0,4.0,-100.00,ENE,62,10.0,15.0,56,0.00,,,0.00,72.000000,,2013-01-07 16:53:00,
2013-01-07 10:02:00,17.0,4.0,-100.00,ENE,62,10.0,15.0,56,0.00,,,0.00,72.000000,,2013-01-07 17:02:00,
2013-01-07 10:12:00,17.0,4.0,-100.00,ENE,62,10.0,15.0,56,0.00,,,0.00,72.000000,,2013-01-07 17:12:00,
2013-01-07 10:22:00,17.0,4.0,-100.00,ENE,62,10.0,15.0,56,0.00,,,0.00,72.000000,,2013-01-07 17:22:00,
2013-01-07 10:32:00,17.0,4.0,-100.00,ENE,62,10.0,15.0,56,0.00,,,0.00,72.000000,,2013-01-07 17:32:00,
2013-01-07 10:53:00,27.0,6.0,-100.00,NW,311,2.0,11.0,41,0.00,,,0.00,380.000000,,2013-01-07 17:53:00,
2013-01-07 11:02:00,27.0,6.0,-100.00,NW,311,2.0,11.0,41,0.00,,,0.00,380.000000,,2013-01-07 18:02:00,
2013-01-07 11:12:00,27.0,6.0,-100.00,NW,311,2.0,11.0,41,0.00,,,0.00,380.000000,,2013-01-07 18:12:00,
2013-01-07 11:23:00,27.0,6.0,-100.00,NW,311,2.0,11.0,41,0.00,,,0.00,380.000000,,2013-01-07 18:23:00,
2013-01-07 11:32:00,27.0,6.0,-100.00,NW,311,2.0,11.0,41,0.00,,,0.00,380.000000,,2013-01-07 18:32:00,
2013-01-07 11:53:00,31.0,5.0,-100.00,ESE,105,3.0,5.0,32,0.00,,,0.00,498.000000,,2013-01-07 18:53:00,
2013-01-07 12:03:00,31.0,5.0,-100.00,ESE,105,3.0,5.0,32,0.00,,,0.00,498.000000,,2013-01-07 19:03:00,
2013-01-07 12:12:00,31.0,5.0,-100.00,ESE,105,3.0,5.0,32,0.00,,,0.00,498.000000,,2013-01-07 19:12:00,
2013-01-07 12:22:00,31.0,5.0,-100.00,ESE,105,3.0,5.0,32,0.00,,,0.00,498.000000,,2013-01-07 19:22:00,
2013-01-07 12:33:00,31.0,5.0,-100.00,ESE,105,3.0,5.0,32,0.00,,,0.00,498.000000,,2013-01-07 19:33:00,
2013-01-07 12:53:00,34.0,5.0,-100.00,NNE,20,1.0,7.0,29,0.00,,,0.00,566.000000,,2013-01-07 19:53:00,
2013-01-07 13:02:00,34.0,5.0,-100.00,NNE,20,1.0,7.0,29,0.00,,,0.00,566.000000,,2013-01-07 20:02:00,
2013-01-07 13:12:00,34.0,5.0,-100.00,NNE,20,1.0,7.0,29,0.00,,,0.00,566.000000,,2013-01-07 20:12:00,
2013-01-07 13:22:00,34.0,5.0,-100.00,NNE,20,1.0,7.0,29,0.00,,,0.00,566.000000,,2013-01-07 20:22:00,
2013-01-07 13:32:00,34.0,5.0,-100.00,NNE,20,1.0,7.0,29,0.00,,,0.00,566.000000,,2013-01-07 20:32:00,
2013-01-07 13:53:00,33.0,3.0,-100.00,East,100,5.0,7.0,28,-99.99,,,0.00,586.000000,,2013-01-07 20:53:00,
2013-01-07 14:02:00,33.0,3.0,-100.00,East,100,5.0,7.0,28,-99.99,,,0.00,586.000000,,2013-01-07 21:02:00,
2013-01-07 14:12:00,33.0,3.0,-100.00,East,100,5.0,7.0,28,-99.99,,,0.00,586.000000,,2013-01-07 21:12:00,
2013-01-07 14:22:00,33.0,3.0,-100.00,East,100,5.0,7.0,28,-99.99,,,0.00,586.000000,,2013-01-07 21:22:00,
2013-01-07 14:32:00,33.0,3.0,-100.00,East,100,5.0,7.0,28,-99.99,,,0.00,586.000000,,2013-01-07 21:32:00,
2013-01-07 14:53:00,36.0,11.0,-100.00,South,190,3.0,7.0,35,0.00,,,0.00,482.000000,,2013-01-07 21:53:00,
2013-01-07 15:02:00,36.0,11.0,-100.00,South,190,3.0,7.0,35,0.00,,,0.00,482.000000,,2013-01-07 22:02:00,
2013-01-07 15:12:00,36.0,11.0,-100.00,South,190,3.0,7.0,35,0.00,,,0.00,482.000000,,2013-01-07 22:12:00,
2013-01-07 15:22:00,36.0,11.0,-100.00,South,190,3.0,7.0,35,0.00,,,0.00,482.000000,,2013-01-07 22:22:00,
2013-01-07 15:33:00,36.0,11.0,-100.00,South,190,3.0,7.0,35,0.00,,,0.00,482.000000,,2013-01-07 22:33:00,
2013-01-07 15:53:00,36.0,10.0,-100.00,WSW,243,2.0,5.0,33,0.00,,,0.00,311.000000,,2013-01-07 22:53:00,
2013-01-07 16:02:00,36.0,10.0,-100.00,WSW,243,2.0,5.0,33,0.00,,,0.00,311.000000,,2013-01-07 23:02:00,
2013-01-07 16:12:00,36.0,10.0,-100.00,WSW,243,2.0,5.0,33,0.00,,,0.00,311.000000,,2013-01-07 23:12:00,
2013-01-07 16:22:00,36.0,10.0,-100.00,WSW,243,2.0,5.0,33,0.00,,,0.00,311.000000,,2013-01-07 23:22:00,
2013-01-07 16:32:00,36.0,10.0,-100.00,WSW,243,2.0,5.0,33,0.00,,,0.00,311.000000,,2013-01-07 23:32:00,
2013-01-07 16:53:00,35.0,8.0,-100.00,SSW,198,1.0,4.0,32,0.00,,,0.00,179.000000,,2013-01-07 23:53:00,
2013-01-07 17:02:00,35.0,8.0,-100.00,SSW,198,1.0,4.0,32,0.00,,,0.00,179.000000,,2013-01-08 00:02:00,
2013-01-07 17:12:00,35.0,8.0,-100.00,SSW,198,1.0,4.0,32,0.00,,,0.00,179.000000,,2013-01-08 00:12:00,
2013-01-07 17:22:00,35.0,8.0,-100.00,SSW,198,1.0,4.0,32,0.00,,,0.00,179.000000,,2013-01-08 00:22:00,
2013-01-07 17:32:00,35.0,8.0,-100.00,SSW,198,1.0,4.0,32,0.00,,,0.00,179.000000,,2013-01-08 00:32:00,
2013-01-07 17:52:00,29.0,8.0,-100.00,SW,226,3.0,4.0,40,0.00,,,0.00,17.000000,,2013-01-08 00:52:00,
2013-01-07 18:02:00,29.0,8.0,-100.00,SW,226,3.0,4.0,40,0.00,,,0.00,17.000000,,2013-01-08 01:02:00,
2013-01-07 18:12:00,29.0,8.0,-100.00,SW,226,3.0,4.0,40,0.00,,,0.00,17.000000,,2013-01-08 01:12:00,
2013-01-07 18:22:00,29.0,8.0,-100.00,SW,226,3.0,4.0,40,0.00,,,0.00,17.000000,,2013-01-08 01:22:00,
2013-01-07 18:32:00,29.0,8.0,-100.00,SW,226,3.0,4.0,40,0.00,,,0.00,17.000000,,2013-01-08 01:32:00,
2013-01-07 18:52:00,26.0,7.0,-100.00,SSE,152,5.0,7.0,44,-99.99,,,0.00,0.000000,,2013-01-08 01:52:00,
2013-01-07 19:02:00,26.0,7.0,-100.00,SSE,152,5.0,7.0,44,-99.99,,,0.00,0.000000,,2013-01-08 02:02:00,
2013-01-07 19:12:00,26.0,7.0,-100.00,SSE,152,5.0,7.0,44,-99.99,,,0.00,0.000000,,2013-01-08 02:12:00,
2013-01-07 19:22:00,26.0,7.0,-100.00,SSE,152,5.0,7.0,44,-99.99,,,0.00,0.000000,,2013-01-08 02:22:00,
2013-01-07 19:32:00,26.0,7.0,-100.00,SSE,152,5.0,7.0,44,-99.99,,,0.00,0.000000,,2013-01-08 02:32:00,
2013-01-07 19:53:00,23.0,6.0,-100.00,SSW,194,6.0,7.0,47,0.00,,,0.00,0.000000,,2013-01-08 02:53:00,
2013-01-07 20:03:00,23.0,6.0,-100.00,SSW,194,6.0,7.0,47,0.00,,,0.00,0.000000,,2013-01-08 03:03:00,
2013-01-07 20:12:00,23.0,6.0,-100.00,SSW,194,6.0,7.0,47,0.00,,,0.00,0.000000,,2013-01-08 03:12:00,
2013-01-07 20:22:00,23.0,6.0,-100.00,SSW,194,6.0,7.0,47,0.00,,,0.00,0.000000,,2013-01-08 03:22:00,
2013-01-07 20:32:00,23.0,6.0,-100.00,SSW,194,6.0,7.0,47,0.00,,,0.00,0.000000,,2013-01-08 03:32:00,
2013-01-07 20:53:00,22.0,4.0,-100.00,WSW,254,5.0,8.0,46,0.00,,,0.00,0.000000,,2013-01-08 03:53:00,
2013-01-07 21:02:00,22.0,4.0,-100.00,WSW,254,5.0,8.0,46,0.00,,,0.00,0.000000,,2013-01-08 04:02:00,
2013-01-07 21:12:00,22.0,4.0,-100.00,WSW,254,5.0,8.0,46,0.00,,,0.00,0.000000,,2013-01-08 04:12:00,
2013-01-07 21:22:00,22.0,4.0,-100.00,WSW,254,5.0,8.0,46,0.00,,,0.00,0.000000,,2013-01-08 04:22:00,
2013-01-07 21:32:00,22.0,4.0,-100.00,WSW,254,5.0,8.0,46,0.00,,,0.00,0.000000,,2013-01-08 04:32:00,
2013-01-07 21:52:00,23.0,6.0,-100.00,NNW,339,0.0,7.0,47,0.00,,,0.00,0.000000,,2013-01-08 04:52:00,
2013-01-07 22:03:00,23.0,6.0,-100.00,NNW,339,0.0,7.0,47,0.00,,,0.00,0.000000,,2013-01-08 05:03:00,
2013-01-07 22:12:00,23.0,6.0,-100.00,NNW,339,0.0,7.0,47,0.00,,,0.00,0.000000,,2013-01-08 05:12:00,
2013-01-07 22:22:00,23.0,6.0,-100.00,NNW,339,0.0,7.0,47,0.00,,,0.00,0.000000,,2013-01-08 05:22:00,
2013-01-07 22:32:00,23.0,6.0,-100.00,NNW,339,0.0,7.0,47,0.00,,,0.00,0.000000,,2013-01-08 05:32:00,
2013-01-07 22:53:00,22.0,7.0,-100.00,West,259,0.0,3.0,51,0.00,,,0.00,0.000000,,2013-01-08 05:53:00,
2013-01-07 23:02:00,22.0,7.0,-100.00,West,259,0.0,3.0,51,0.00,,,0.00,0.000000,,2013-01-08 06:02:00,
2013-01-07 23:12:00,22.0,7.0,-100.00,West,259,0.0,3.0,51,0.00,,,0.00,0.000000,,2013-01-08 06:12:00,
2013-01-07 23:22:00,22.0,7.0,-100.00,West,259,0.0,3.0,51,0.00,,,0.00,0.000000,,2013-01-08 06:22:00,
2013-01-07 23:32:00,22.0,7.0,-100.00,West,259,0.0,3.0,51,0.00,,,0.00,0.000000,,2013-01-08 06:32:00,
2013-01-07 23:53:00,22.0,5.0,-100.00,WSW,250,2.0,4.0,48,0.00,,,0.00,0.000000,,2013-01-08 06:53:00,